createdAt,value
2017-08-27T00:00:09.416Z,42.04
2017-08-27T00:02:37.412Z,42.17
2017-08-27T00:05:05.658Z,42.17
2017-08-27T00:07:33.265Z,42.11
2017-08-27T00:10:01.457Z,42.24
2017-08-27T00:12:31.300Z,42.26
2017-08-27T00:15:02.785Z,42.41
2017-08-27T00:17:31.047Z,42.47
2017-08-27T00:19:59.877Z,42.45
2017-08-27T00:22:27.826Z,42.51
2017-08-27T00:24:55.380Z,42.18
2017-08-27T00:27:23.004Z,42.33
2017-08-27T00:29:50.593Z,42.05
2017-08-27T00:32:18.907Z,42.17
2017-08-27T00:34:46.774Z,42.20
2017-08-27T00:37:14.384Z,42.01
2017-08-27T00:39:42.017Z,42.11
2017-08-27T00:42:09.600Z,41.93
2017-08-27T00:44:38.589Z,41.98
2017-08-27T00:47:06.341Z,42.01
2017-08-27T00:49:34.222Z,42.37
2017-08-27T00:52:01.876Z,42.11
2017-08-27T00:54:29.688Z,42.12
2017-08-27T00:56:57.283Z,42.14
2017-08-27T00:59:24.877Z,42.09
2017-08-27T01:01:52.499Z,41.70
2017-08-27T01:04:20.119Z,41.84
2017-08-27T01:06:47.735Z,41.93
2017-08-27T01:09:15.424Z,41.75
2017-08-27T01:11:42.983Z,41.84
2017-08-27T01:14:10.753Z,41.98
2017-08-27T01:16:38.323Z,42.11
2017-08-27T01:19:05.854Z,42.31
2017-08-27T01:21:33.432Z,42.41
2017-08-27T01:24:01.328Z,42.69
2017-08-27T01:26:29.189Z,43.49
2017-08-27T01:28:56.792Z,44.30
2017-08-27T01:31:24.497Z,44.47
2017-08-27T01:33:52.044Z,44.85
2017-08-27T01:36:19.703Z,44.83
2017-08-27T01:38:47.283Z,45.27
2017-08-27T01:41:14.982Z,45.67
2017-08-27T01:43:42.765Z,45.97
2017-08-27T01:46:10.624Z,46.05
2017-08-27T01:48:38.392Z,45.61
2017-08-27T01:51:06.363Z,45.97
2017-08-27T01:53:34.030Z,45.82
2017-08-27T01:56:01.705Z,46.44
2017-08-27T01:58:29.358Z,46.60
2017-08-27T02:00:56.979Z,46.62
2017-08-27T02:03:24.667Z,46.38
2017-08-27T02:05:52.638Z,46.58
2017-08-27T02:08:20.265Z,46.71
2017-08-27T02:11:02.978Z,46.58
2017-08-27T02:13:31.135Z,46.35
2017-08-27T02:15:58.793Z,46.53
2017-08-27T02:18:28.045Z,46.60
2017-08-27T02:20:56.382Z,47.14
2017-08-27T02:23:24.033Z,47.15
2017-08-27T02:25:52.759Z,47.42
2017-08-27T02:28:20.447Z,47.04
2017-08-27T02:30:50.908Z,46.49
2017-08-27T02:33:19.081Z,46.87
2017-08-27T02:35:52.010Z,46.40
2017-08-27T02:38:19.691Z,47.23
2017-08-27T02:40:48.306Z,46.98
2017-08-27T02:43:18.121Z,46.93
2017-08-27T02:45:47.652Z,47.44
2017-08-27T02:48:16.779Z,48.05
2017-08-27T02:50:44.547Z,47.60
2017-08-27T02:53:12.133Z,48.19
2017-08-27T02:55:39.680Z,48.91
2017-08-27T02:58:07.453Z,46.17
2017-08-27T03:00:35.587Z,45.44
2017-08-27T03:03:03.278Z,47.08
2017-08-27T03:05:30.902Z,47.83
2017-08-27T03:07:58.498Z,47.79
2017-08-27T03:10:26.046Z,48.49
2017-08-27T03:12:53.749Z,48.19
2017-08-27T03:15:21.485Z,48.35
2017-08-27T03:17:49.067Z,48.59
2017-08-27T03:20:16.621Z,48.65
2017-08-27T03:22:45.017Z,49.16
2017-08-27T03:25:12.622Z,48.63
2017-08-27T03:27:40.989Z,48.56
2017-08-27T03:30:08.760Z,48.65
2017-08-27T03:32:36.820Z,49.05
2017-08-27T03:35:05.109Z,49.54
2017-08-27T03:37:32.801Z,49.85
2017-08-27T03:40:00.326Z,49.60
2017-08-27T03:42:27.872Z,50.13
2017-08-27T03:44:55.426Z,50.37
2017-08-27T03:47:24.068Z,50.09
2017-08-27T03:49:52.525Z,50.04
2017-08-27T03:52:20.105Z,50.32
2017-08-27T03:54:47.632Z,50.51
2017-08-27T03:57:15.235Z,49.83
2017-08-27T03:59:42.831Z,50.80
2017-08-27T04:02:12.653Z,50.91
2017-08-27T04:07:34.727Z,51.02
2017-08-27T04:10:03.238Z,51.03
2017-08-27T04:12:30.902Z,51.00
2017-08-27T04:14:58.516Z,51.13
2017-08-27T04:17:26.067Z,51.00
2017-08-27T04:19:53.690Z,50.87
2017-08-27T04:22:21.304Z,50.99
2017-08-27T04:24:48.895Z,50.40
2017-08-27T04:27:21.333Z,50.54
2017-08-27T04:29:48.933Z,50.70
2017-08-27T04:32:16.523Z,50.38
2017-08-27T04:34:44.045Z,49.89
2017-08-27T04:37:11.592Z,49.60
2017-08-27T04:39:39.159Z,49.87
2017-08-27T04:42:06.696Z,48.84
2017-08-27T04:44:34.237Z,48.80
2017-08-27T04:47:02.440Z,48.20
2017-08-27T04:49:29.961Z,47.39
2017-08-27T04:51:57.760Z,45.96
2017-08-27T04:54:25.359Z,44.31
2017-08-27T04:56:52.937Z,43.17
2017-08-27T04:59:20.484Z,41.86
2017-08-27T05:01:48.064Z,41.04
2017-08-27T05:04:15.572Z,40.21
2017-08-27T05:06:43.091Z,39.28
2017-08-27T05:09:10.648Z,38.89
2017-08-27T05:11:38.163Z,38.27
2017-08-27T05:14:05.699Z,37.74
2017-08-27T05:16:33.332Z,37.14
2017-08-27T05:19:00.865Z,36.16
2017-08-27T05:21:28.433Z,36.02
2017-08-27T05:23:56.023Z,34.97
2017-08-27T05:26:23.539Z,34.71
2017-08-27T05:28:51.039Z,35.86
2017-08-27T05:31:18.619Z,35.99
2017-08-27T05:33:46.146Z,35.02
2017-08-27T05:36:13.673Z,35.07
2017-08-27T05:38:41.752Z,34.01
2017-08-27T05:41:09.525Z,35.58
2017-08-27T05:43:37.119Z,34.80
2017-08-27T05:46:04.736Z,34.54
2017-08-27T05:48:32.847Z,34.00
2017-08-27T05:51:00.937Z,32.75
2017-08-27T05:53:28.547Z,33.29
2017-08-27T05:55:56.327Z,33.41
2017-08-27T05:58:23.877Z,32.21
2017-08-27T06:00:51.807Z,32.41
2017-08-27T06:03:19.568Z,32.13
2017-08-27T06:05:47.175Z,32.10
2017-08-27T06:08:14.781Z,31.33
2017-08-27T06:10:42.347Z,31.86
2017-08-27T06:13:11.076Z,31.18
2017-08-27T06:15:38.649Z,31.48
2017-08-27T06:18:06.255Z,31.42
2017-08-27T06:20:34.760Z,31.15
2017-08-27T06:23:02.352Z,30.25
2017-08-27T06:25:29.963Z,30.52
2017-08-27T06:27:57.570Z,29.98
2017-08-27T06:30:25.223Z,29.78
2017-08-27T06:32:52.997Z,29.06
2017-08-27T06:35:20.789Z,28.71
2017-08-27T06:37:48.377Z,29.35
2017-08-27T06:40:15.883Z,29.45
2017-08-27T06:42:43.398Z,28.88
2017-08-27T06:45:10.956Z,29.00
2017-08-27T06:47:38.736Z,28.67
2017-08-27T06:50:06.265Z,28.46
2017-08-27T06:52:33.833Z,27.73
2017-08-27T06:55:02.302Z,27.45
2017-08-27T06:57:29.839Z,27.74
2017-08-27T06:59:57.447Z,27.54
2017-08-27T07:02:25.071Z,26.96
2017-08-27T07:04:52.867Z,26.73
2017-08-27T07:07:20.487Z,26.79
2017-08-27T07:09:48.138Z,26.52
2017-08-27T07:12:16.488Z,26.29
2017-08-27T07:14:45.004Z,25.26
2017-08-27T07:17:12.609Z,25.12
2017-08-27T07:19:40.346Z,25.65
2017-08-27T07:22:08.236Z,26.41
2017-08-27T07:24:35.870Z,27.10
2017-08-27T07:27:06.176Z,27.14
2017-08-27T07:29:33.825Z,27.25
2017-08-27T07:32:01.671Z,26.23
2017-08-27T07:34:29.416Z,26.99
2017-08-27T07:36:58.314Z,25.74
2017-08-27T07:39:28.614Z,26.93
2017-08-27T07:41:57.144Z,26.51
2017-08-27T07:44:25.112Z,26.28
2017-08-27T07:46:52.921Z,25.59
2017-08-27T07:49:21.310Z,24.57
2017-08-27T07:51:49.241Z,25.11
2017-08-27T07:54:17.125Z,24.65
2017-08-27T07:56:45.672Z,24.55
2017-08-27T07:59:13.683Z,25.43
2017-08-27T08:01:41.290Z,25.19
2017-08-27T08:04:09.212Z,25.28
2017-08-27T08:06:37.366Z,25.52
2017-08-27T08:09:05.087Z,25.48
2017-08-27T08:11:32.954Z,24.73
2017-08-27T08:14:00.546Z,24.69
2017-08-27T08:16:28.379Z,25.18
2017-08-27T08:18:56.222Z,25.05
2017-08-27T08:21:23.839Z,25.07
2017-08-27T08:23:51.561Z,25.61
2017-08-27T08:26:20.071Z,24.82
2017-08-27T08:28:48.647Z,24.63
2017-08-27T08:31:16.606Z,25.71
2017-08-27T08:33:44.177Z,24.44
2017-08-27T08:36:11.791Z,25.30
2017-08-27T08:38:39.419Z,25.06
2017-08-27T08:43:51.508Z,24.32
2017-08-27T08:46:19.795Z,24.15
2017-08-27T08:48:47.749Z,24.44
2017-08-27T08:51:19.254Z,23.68
2017-08-27T08:53:47.414Z,22.35
2017-08-27T08:56:18.054Z,22.40
2017-08-27T08:58:45.788Z,21.88
2017-08-27T09:01:13.732Z,22.25
2017-08-27T09:03:41.938Z,21.34
2017-08-27T09:06:09.650Z,20.94
2017-08-27T09:08:37.259Z,20.27
2017-08-27T09:11:04.786Z,19.77
2017-08-27T09:13:33.086Z,21.15
2017-08-27T09:16:01.874Z,22.12
2017-08-27T09:18:30.778Z,20.79
2017-08-27T09:21:02.331Z,20.80
2017-08-27T09:23:33.197Z,20.58
2017-08-27T09:26:07.008Z,19.49
2017-08-27T09:28:37.774Z,20.19
2017-08-27T09:31:05.656Z,20.67
2017-08-27T09:33:33.572Z,22.02
2017-08-27T09:36:01.460Z,22.38
2017-08-27T09:43:49.506Z,19.30
2017-08-27T09:46:19.151Z,19.40
2017-08-27T09:48:52.388Z,20.08
2017-08-27T09:51:20.121Z,20.35
2017-08-27T09:53:47.742Z,20.77
2017-08-27T09:56:15.609Z,19.91
2017-08-27T09:58:44.488Z,20.67
2017-08-27T10:01:19.394Z,19.92
2017-08-27T10:03:47.221Z,17.04
2017-08-27T10:06:16.434Z,17.18
2017-08-27T10:08:44.170Z,18.10
2017-08-27T10:11:12.775Z,16.99
2017-08-27T10:14:12.579Z,16.31
2017-08-27T10:16:40.946Z,17.54
2017-08-27T10:19:09.441Z,17.25
2017-08-27T10:21:37.037Z,18.41
2017-08-27T10:24:04.632Z,17.14
2017-08-27T10:26:32.290Z,15.20
2017-08-27T10:29:00.044Z,16.24
2017-08-27T10:31:27.912Z,15.84
2017-08-27T10:33:55.911Z,17.72
2017-08-27T10:36:23.556Z,16.43
2017-08-27T10:38:51.201Z,15.77
2017-08-27T10:41:18.795Z,16.13
2017-08-27T10:43:48.610Z,17.01
2017-08-27T10:56:20.752Z,17.46
2017-08-27T10:58:51.971Z,17.01
2017-08-27T11:01:19.783Z,18.09
2017-08-27T11:03:50.896Z,18.46
2017-08-27T11:06:18.551Z,19.04
2017-08-27T11:08:46.313Z,18.30
2017-08-27T11:11:14.190Z,17.57
2017-08-27T11:13:42.307Z,18.79
2017-08-27T11:16:09.966Z,16.97
2017-08-27T11:18:56.693Z,18.13
2017-08-27T11:21:25.025Z,18.31
2017-08-27T11:23:52.723Z,18.08
2017-08-27T11:26:31.130Z,16.33
2017-08-27T11:29:00.589Z,17.04
2017-08-27T11:31:29.809Z,16.89
2017-08-27T11:33:58.800Z,17.49
2017-08-27T11:36:34.445Z,17.68
2017-08-27T11:39:02.575Z,18.37
2017-08-27T11:41:31.167Z,18.10
2017-08-27T11:44:00.961Z,18.66
2017-08-27T11:46:28.628Z,18.27
2017-08-27T11:48:56.309Z,18.31
2017-08-27T11:51:24.012Z,17.79
2017-08-27T11:53:51.692Z,17.67
2017-08-27T11:56:19.283Z,16.40
2017-08-27T11:58:48.485Z,16.87
2017-08-27T12:01:16.539Z,16.87
2017-08-27T12:03:45.622Z,17.39
2017-08-27T12:06:14.250Z,18.17
2017-08-27T12:08:42.731Z,18.29
2017-08-27T12:11:10.471Z,17.61
2017-08-27T12:13:38.878Z,16.86
2017-08-27T12:16:08.464Z,17.74
2017-08-27T12:18:36.505Z,16.60
2017-08-27T12:21:04.139Z,17.87
2017-08-27T12:23:31.794Z,18.98
2017-08-27T12:26:09.395Z,18.46
2017-08-27T12:28:37.041Z,18.54
2017-08-27T12:31:04.665Z,18.06
2017-08-27T12:33:32.301Z,18.29
2017-08-27T12:35:59.931Z,18.31
2017-08-27T12:38:27.587Z,17.09
2017-08-27T12:40:55.162Z,17.22
2017-08-27T12:43:22.770Z,17.61
2017-08-27T12:45:50.447Z,18.17
2017-08-27T12:48:18.033Z,18.06
2017-08-27T12:50:45.994Z,17.81
2017-08-27T12:53:13.730Z,18.22
2017-08-27T12:55:41.805Z,19.00
2017-08-27T12:58:09.895Z,18.87
2017-08-27T13:00:37.529Z,18.84
2017-08-27T13:03:05.248Z,18.09
2017-08-27T13:05:33.091Z,18.41
2017-08-27T13:08:00.966Z,19.10
2017-08-27T13:10:28.641Z,18.03
2017-08-27T13:12:56.300Z,17.77
2017-08-27T13:15:24.000Z,18.63
2017-08-27T13:17:57.259Z,19.29
2017-08-27T13:20:28.788Z,19.18
2017-08-27T13:23:01.153Z,19.07
2017-08-27T13:25:33.774Z,19.18
2017-08-27T13:28:05.306Z,19.15
2017-08-27T13:30:34.076Z,19.52
2017-08-27T13:33:02.692Z,19.31
2017-08-27T13:35:31.493Z,19.71
2017-08-27T13:38:00.311Z,18.92
2017-08-27T13:40:29.451Z,18.33
2017-08-27T13:42:57.312Z,18.57
2017-08-27T13:45:26.392Z,19.08
2017-08-27T13:47:56.178Z,20.13
2017-08-27T13:50:29.229Z,19.50
2017-08-27T13:52:56.874Z,19.26
2017-08-27T13:55:43.491Z,20.22
2017-08-27T13:58:14.380Z,20.30
2017-08-27T14:00:46.258Z,20.99
2017-08-27T14:03:21.112Z,20.67
2017-08-27T14:05:50.059Z,21.61
2017-08-27T14:08:18.066Z,21.35
2017-08-27T14:10:46.090Z,21.41
2017-08-27T14:13:13.815Z,21.61
2017-08-27T14:15:41.387Z,21.29
2017-08-27T14:18:08.979Z,21.73
2017-08-27T14:20:36.829Z,21.28
2017-08-27T14:23:04.523Z,21.35
2017-08-27T14:25:32.953Z,21.06
2017-08-27T14:28:01.494Z,21.52
2017-08-27T14:34:39.839Z,21.78
2017-08-27T14:37:36.345Z,21.39
2017-08-27T14:40:05.088Z,22.65
2017-08-27T14:42:33.634Z,21.91
2017-08-27T14:45:01.948Z,22.57
2017-08-27T14:47:30.229Z,23.01
2017-08-27T14:49:58.006Z,22.24
2017-08-27T14:52:26.910Z,22.69
2017-08-27T14:58:22.698Z,22.22
2017-08-27T15:00:50.636Z,23.13
2017-08-27T15:03:18.275Z,23.08
2017-08-27T15:05:45.921Z,22.13
2017-08-27T15:08:13.880Z,23.09
2017-08-27T15:10:41.559Z,22.72
2017-08-27T15:13:09.166Z,22.54
2017-08-27T15:15:36.957Z,22.98
2017-08-27T15:18:04.722Z,22.56
2017-08-27T15:20:32.254Z,23.80
2017-08-27T15:22:59.989Z,23.73
2017-08-27T15:25:27.606Z,23.91
2017-08-27T15:27:55.373Z,23.54
2017-08-27T15:30:24.129Z,23.41
2017-08-27T15:33:28.398Z,23.20
2017-08-27T15:35:57.829Z,23.59
2017-08-27T15:38:26.974Z,23.17
2017-08-27T15:40:54.717Z,24.08
2017-08-27T15:43:22.343Z,23.68
2017-08-27T15:45:50.108Z,23.99
2017-08-27T15:48:18.691Z,24.00
2017-08-27T15:50:46.469Z,23.73
2017-08-27T15:53:14.018Z,25.15
2017-08-27T15:55:42.649Z,24.58
2017-08-27T15:58:10.284Z,23.54
2017-08-27T16:00:38.420Z,24.23
2017-08-27T16:03:06.246Z,24.71
2017-08-27T16:05:33.790Z,25.39
2017-08-27T16:08:01.525Z,24.07
2017-08-27T16:10:30.158Z,24.71
2017-08-27T16:12:58.280Z,24.42
2017-08-27T16:15:26.557Z,26.24
2017-08-27T16:17:54.241Z,26.10
2017-08-27T16:20:22.664Z,25.73
2017-08-27T16:22:51.078Z,25.53
2017-08-27T16:28:48.555Z,25.57
2017-08-27T16:31:16.382Z,27.20
2017-08-27T16:33:43.938Z,26.67
2017-08-27T16:36:11.591Z,26.45
2017-08-27T16:38:39.266Z,26.39
2017-08-27T16:41:06.881Z,26.40
2017-08-27T16:43:34.467Z,26.36
2017-08-27T16:46:02.323Z,26.73
2017-08-27T16:48:30.668Z,26.90
2017-08-27T16:54:21.428Z,26.57
2017-08-27T16:57:00.112Z,26.72
2017-08-27T16:59:31.211Z,27.76
2017-08-27T17:02:03.610Z,27.22
2017-08-27T17:04:31.332Z,27.64
2017-08-27T17:06:59.170Z,27.61
2017-08-27T17:09:28.829Z,27.97
2017-08-27T17:11:59.721Z,27.51
2017-08-27T17:14:28.375Z,27.68
2017-08-27T17:16:56.608Z,27.78
2017-08-27T17:19:24.240Z,28.06
2017-08-27T17:21:54.263Z,28.16
2017-08-27T17:24:22.021Z,28.44
2017-08-27T17:26:50.602Z,28.31
2017-08-27T17:29:23.029Z,28.64
2017-08-27T17:31:50.975Z,28.54
2017-08-27T17:34:18.946Z,28.61
2017-08-27T17:36:46.641Z,28.63
2017-08-27T17:39:14.821Z,28.52
2017-08-27T17:41:45.774Z,28.83
2017-08-27T17:44:14.279Z,29.04
2017-08-27T17:46:45.994Z,29.14
2017-08-27T17:49:15.832Z,29.65
2017-08-27T17:54:35.555Z,29.38
2017-08-27T17:57:12.894Z,29.26
2017-08-27T17:59:42.065Z,29.39
2017-08-27T18:02:19.731Z,29.83
2017-08-27T18:08:44.687Z,29.97
2017-08-27T18:11:18.354Z,30.52
2017-08-27T18:13:54.576Z,30.43
2017-08-27T18:16:31.420Z,30.34
2017-08-27T18:18:59.177Z,30.41
2017-08-27T18:21:27.760Z,30.48
2017-08-27T18:23:59.750Z,30.92
2017-08-27T18:30:11.602Z,31.78
2017-08-27T18:32:43.145Z,31.91
2017-08-27T18:38:25.320Z,32.30
2017-08-27T18:40:57.963Z,32.41
2017-08-27T18:43:25.808Z,32.36
2017-08-27T18:45:54.222Z,32.37
2017-08-27T18:48:26.299Z,32.46
2017-08-27T18:50:53.961Z,32.77
2017-08-27T18:53:21.617Z,32.85
2017-08-27T18:55:49.775Z,33.01
2017-08-27T18:58:17.395Z,33.02
2017-08-27T19:00:45.014Z,32.82
2017-08-27T19:03:12.634Z,33.06
2017-08-27T19:05:40.405Z,33.08
2017-08-27T19:08:08.153Z,33.23
2017-08-27T19:10:35.936Z,33.27
2017-08-27T19:13:03.572Z,33.29
2017-08-27T19:15:31.204Z,32.94
2017-08-27T19:17:58.814Z,33.24
2017-08-27T19:20:26.445Z,33.55
2017-08-27T19:22:54.216Z,33.02
2017-08-27T19:25:23.925Z,33.57
2017-08-27T19:27:52.502Z,33.39
2017-08-27T19:30:21.098Z,33.47
2017-08-27T19:32:48.869Z,33.38
2017-08-27T19:35:16.684Z,33.32
2017-08-27T19:37:44.321Z,32.42
2017-08-27T19:40:11.911Z,33.20
2017-08-27T19:42:39.450Z,33.62
2017-08-27T19:45:07.915Z,34.49
2017-08-27T19:47:35.579Z,35.21
2017-08-27T19:50:03.431Z,35.33
2017-08-27T19:52:31.109Z,35.73
2017-08-27T19:54:58.862Z,35.97
2017-08-27T19:57:26.507Z,35.98
2017-08-27T19:59:54.130Z,35.82
2017-08-27T20:02:52.072Z,35.69
2017-08-27T20:05:19.834Z,36.13
2017-08-27T20:07:47.421Z,36.25
2017-08-27T20:10:15.046Z,36.37
2017-08-27T20:12:42.698Z,36.60
2017-08-27T20:15:10.684Z,37.32
2017-08-27T20:17:38.341Z,37.45
2017-08-27T20:20:06.630Z,37.47
2017-08-27T20:22:34.324Z,37.43
2017-08-27T20:25:01.854Z,37.48
2017-08-27T20:27:29.422Z,37.67
2017-08-27T20:29:57.040Z,37.61
2017-08-27T20:32:25.638Z,37.65
2017-08-27T20:34:55.032Z,37.54
2017-08-27T20:37:28.782Z,37.79
2017-08-27T20:39:57.180Z,37.92
2017-08-27T20:42:24.833Z,38.17
2017-08-27T20:44:52.473Z,38.40
2017-08-27T20:47:20.078Z,38.24
2017-08-27T20:49:47.703Z,38.68
2017-08-27T20:52:15.320Z,38.90
2017-08-27T20:54:42.841Z,39.04
2017-08-27T20:57:10.911Z,39.13
2017-08-27T20:59:39.314Z,39.23
2017-08-27T21:02:06.921Z,39.23
2017-08-27T21:04:34.815Z,39.42
2017-08-27T21:07:02.381Z,39.52
2017-08-27T21:09:29.974Z,38.99
2017-08-27T21:11:57.506Z,39.14
2017-08-27T21:14:25.043Z,38.76
2017-08-27T21:16:52.593Z,39.26
2017-08-27T21:19:20.365Z,39.31
2017-08-27T21:21:47.926Z,38.93
2017-08-27T21:24:15.559Z,39.19
2017-08-27T21:26:43.265Z,38.26
2017-08-27T21:29:11.035Z,38.59
2017-08-27T21:31:41.985Z,38.35
2017-08-27T21:34:09.511Z,38.24
2017-08-27T21:36:37.036Z,37.84
2017-08-27T21:39:04.601Z,37.64
2017-08-27T21:41:32.368Z,37.62
2017-08-27T21:44:00.621Z,38.09
2017-08-27T21:46:29.412Z,38.20
2017-08-27T21:48:57.032Z,38.43
2017-08-27T21:51:25.300Z,37.92
2017-08-27T21:53:52.903Z,38.33
2017-08-27T21:56:20.467Z,38.46
2017-08-27T21:58:48.229Z,38.13
2017-08-27T22:01:15.840Z,38.38
2017-08-27T22:03:43.362Z,38.16
2017-08-27T22:06:10.895Z,38.01
2017-08-27T22:08:38.441Z,37.88
2017-08-27T22:11:05.957Z,38.26
2017-08-27T22:13:33.466Z,38.87
2017-08-27T22:16:02.515Z,38.99
2017-08-27T22:18:45.512Z,39.02
2017-08-27T22:21:15.585Z,39.06
2017-08-27T22:23:43.108Z,39.54
2017-08-27T22:26:10.607Z,39.81
2017-08-27T22:28:38.152Z,40.08
2017-08-27T22:31:05.711Z,39.66
2017-08-27T22:33:33.520Z,39.96
2017-08-27T22:36:01.046Z,39.79
2017-08-27T22:38:28.578Z,39.70
2017-08-27T22:40:58.613Z,39.43
2017-08-27T22:43:26.129Z,39.97
2017-08-27T22:45:53.806Z,40.21
2017-08-27T22:48:21.370Z,40.82
2017-08-27T22:50:48.911Z,40.40
2017-08-27T22:53:16.456Z,40.55
2017-08-27T22:55:43.963Z,39.01
2017-08-27T22:58:11.478Z,39.63
2017-08-27T23:00:39.952Z,38.56
2017-08-27T23:03:07.512Z,39.09
2017-08-27T23:05:35.017Z,40.00
2017-08-27T23:08:04.488Z,40.09
2017-08-27T23:10:32.263Z,40.77
2017-08-27T23:13:00.695Z,39.50
2017-08-27T23:15:28.351Z,39.34
2017-08-27T23:17:55.936Z,39.26
2017-08-27T23:20:28.094Z,39.10
2017-08-27T23:22:55.644Z,39.71
2017-08-27T23:25:23.462Z,39.63
2017-08-27T23:27:50.986Z,39.96
2017-08-27T23:30:18.610Z,40.11
2017-08-27T23:32:46.483Z,40.93
2017-08-27T23:35:14.026Z,41.31
2017-08-27T23:37:41.573Z,42.14
2017-08-27T23:40:09.101Z,42.23
2017-08-27T23:42:36.625Z,42.74
2017-08-27T23:45:04.244Z,42.81
2017-08-27T23:47:31.760Z,43.27
2017-08-27T23:49:59.273Z,43.13
2017-08-27T23:52:27.106Z,43.23
2017-08-27T23:54:54.917Z,43.87
2017-08-27T23:57:22.435Z,43.99
2017-08-27T23:59:50.049Z,43.81
